sensor_id;sensor_type;location;lat;lon;timestamp;P1;durP1;ratioP1;P2;durP2;ratioP2
21827;SDS011;11076;47.942;11.804;2023-04-21T00:02:02;14.13;;;9.63;;
21827;SDS011;11076;47.942;11.804;2023-04-21T00:07:04;14.43;;;10.90;;
21827;SDS011;11076;47.942;11.804;2023-04-21T00:12:07;16.40;;;10.73;;
21827;SDS011;11076;47.942;11.804;2023-04-21T00:17:10;15.87;;;11.47;;
21827;SDS011;11076;47.942;11.804;2023-04-21T00:22:12;13.87;;;11.00;;
21827;SDS011;11076;47.942;11.804;2023-04-21T00:27:15;16.87;;;12.03;;
21827;SDS011;11076;47.942;11.804;2023-04-21T00:32:18;17.33;;;12.13;;
21827;SDS011;11076;47.942;11.804;2023-04-21T00:37:20;18.97;;;12.83;;
21827;SDS011;11076;47.942;11.804;2023-04-21T00:42:23;17.17;;;12.20;;
21827;SDS011;11076;47.942;11.804;2023-04-21T00:47:26;16.27;;;11.63;;
21827;SDS011;11076;47.942;11.804;2023-04-21T00:52:29;17.73;;;12.13;;
21827;SDS011;11076;47.942;11.804;2023-04-21T00:57:32;16.87;;;11.23;;
21827;SDS011;11076;47.942;11.804;2023-04-21T01:02:37;17.13;;;12.03;;
21827;SDS011;11076;47.942;11.804;2023-04-21T01:07:40;16.93;;;11.70;;
21827;SDS011;11076;47.942;11.804;2023-04-21T01:12:43;18.17;;;11.73;;
21827;SDS011;11076;47.942;11.804;2023-04-21T01:17:47;19.87;;;12.73;;
21827;SDS011;11076;47.942;11.804;2023-04-21T01:22:50;17.10;;;11.97;;
21827;SDS011;11076;47.942;11.804;2023-04-21T01:27:53;15.70;;;11.50;;
21827;SDS011;11076;47.942;11.804;2023-04-21T01:32:55;15.57;;;11.13;;
21827;SDS011;11076;47.942;11.804;2023-04-21T01:38:00;18.23;;;11.03;;
21827;SDS011;11076;47.942;11.804;2023-04-21T01:43:03;18.10;;;12.33;;
21827;SDS011;11076;47.942;11.804;2023-04-21T01:48:07;15.43;;;11.07;;
21827;SDS011;11076;47.942;11.804;2023-04-21T01:53:10;15.67;;;11.87;;
21827;SDS011;11076;47.942;11.804;2023-04-21T01:58:12;16.73;;;11.93;;
21827;SDS011;11076;47.942;11.804;2023-04-21T02:03:15;17.70;;;12.50;;
21827;SDS011;11076;47.942;11.804;2023-04-21T02:08:19;18.07;;;11.53;;
21827;SDS011;11076;47.942;11.804;2023-04-21T02:13:22;16.00;;;11.13;;
21827;SDS011;11076;47.942;11.804;2023-04-21T02:18:25;16.43;;;11.17;;
21827;SDS011;11076;47.942;11.804;2023-04-21T02:23:30;14.60;;;10.90;;
21827;SDS011;11076;47.942;11.804;2023-04-21T02:28:33;16.30;;;11.03;;
21827;SDS011;11076;47.942;11.804;2023-04-21T02:33:35;15.90;;;10.50;;
21827;SDS011;11076;47.942;11.804;2023-04-21T02:38:37;14.37;;;10.40;;
21827;SDS011;11076;47.942;11.804;2023-04-21T02:43:43;14.50;;;10.83;;
21827;SDS011;11076;47.942;11.804;2023-04-21T02:48:46;17.00;;;10.83;;
21827;SDS011;11076;47.942;11.804;2023-04-21T02:53:48;16.43;;;11.20;;
21827;SDS011;11076;47.942;11.804;2023-04-21T02:58:50;16.67;;;10.50;;
21827;SDS011;11076;47.942;11.804;2023-04-21T03:03:53;16.97;;;10.27;;
21827;SDS011;11076;47.942;11.804;2023-04-21T03:08:55;15.93;;;11.27;;
21827;SDS011;11076;47.942;11.804;2023-04-21T03:14:00;15.40;;;10.50;;
21827;SDS011;11076;47.942;11.804;2023-04-21T03:19:02;17.60;;;11.43;;
21827;SDS011;11076;47.942;11.804;2023-04-21T03:24:05;18.47;;;10.93;;
21827;SDS011;11076;47.942;11.804;2023-04-21T03:29:08;15.03;;;11.00;;
21827;SDS011;11076;47.942;11.804;2023-04-21T03:34:10;18.07;;;12.37;;
21827;SDS011;11076;47.942;11.804;2023-04-21T03:39:13;18.17;;;12.97;;
21827;SDS011;11076;47.942;11.804;2023-04-21T03:44:20;17.17;;;11.17;;
21827;SDS011;11076;47.942;11.804;2023-04-21T03:49:23;20.80;;;12.37;;
21827;SDS011;11076;47.942;11.804;2023-04-21T03:54:25;20.97;;;14.60;;
21827;SDS011;11076;47.942;11.804;2023-04-21T03:59:27;19.93;;;13.30;;
21827;SDS011;11076;47.942;11.804;2023-04-21T04:04:30;20.10;;;13.10;;
21827;SDS011;11076;47.942;11.804;2023-04-21T04:09:32;20.03;;;13.67;;
21827;SDS011;11076;47.942;11.804;2023-04-21T04:14:35;19.90;;;12.23;;
21827;SDS011;11076;47.942;11.804;2023-04-21T04:19:37;23.70;;;16.13;;
21827;SDS011;11076;47.942;11.804;2023-04-21T04:24:40;25.83;;;16.97;;
21827;SDS011;11076;47.942;11.804;2023-04-21T04:29:42;21.97;;;14.30;;
21827;SDS011;11076;47.942;11.804;2023-04-21T04:34:47;31.77;;;18.23;;
21827;SDS011;11076;47.942;11.804;2023-04-21T04:39:53;27.77;;;18.87;;
21827;SDS011;11076;47.942;11.804;2023-04-21T04:44:56;27.37;;;19.13;;
21827;SDS011;11076;47.942;11.804;2023-04-21T04:50:00;23.03;;;16.23;;
21827;SDS011;11076;47.942;11.804;2023-04-21T04:55:02;26.30;;;17.13;;
21827;SDS011;11076;47.942;11.804;2023-04-21T05:00:06;27.63;;;17.63;;
21827;SDS011;11076;47.942;11.804;2023-04-21T05:05:12;29.27;;;17.37;;
21827;SDS011;11076;47.942;11.804;2023-04-21T05:10:14;29.67;;;18.87;;
21827;SDS011;11076;47.942;11.804;2023-04-21T05:15:17;25.30;;;15.37;;
21827;SDS011;11076;47.942;11.804;2023-04-21T05:20:19;26.83;;;17.33;;
21827;SDS011;11076;47.942;11.804;2023-04-21T05:25:22;21.77;;;15.60;;
21827;SDS011;11076;47.942;11.804;2023-04-21T05:30:24;25.83;;;16.20;;
21827;SDS011;11076;47.942;11.804;2023-04-21T05:35:29;22.87;;;15.93;;
21827;SDS011;11076;47.942;11.804;2023-04-21T05:40:32;25.33;;;18.00;;
21827;SDS011;11076;47.942;11.804;2023-04-21T05:45:37;22.52;;;16.30;;
21827;SDS011;11076;47.942;11.804;2023-04-21T05:50:40;26.70;;;16.97;;
21827;SDS011;11076;47.942;11.804;2023-04-21T05:55:43;29.13;;;16.63;;
21827;SDS011;11076;47.942;11.804;2023-04-21T06:00:45;24.30;;;16.50;;
21827;SDS011;11076;47.942;11.804;2023-04-21T06:05:54;22.80;;;15.88;;
21827;SDS011;11076;47.942;11.804;2023-04-21T06:10:57;23.13;;;16.95;;
21827;SDS011;11076;47.942;11.804;2023-04-21T06:16:00;21.53;;;15.37;;
21827;SDS011;11076;47.942;11.804;2023-04-21T06:21:02;19.50;;;15.40;;
21827;SDS011;11076;47.942;11.804;2023-04-21T06:26:05;17.30;;;12.68;;
21827;SDS011;11076;47.942;11.804;2023-04-21T06:31:08;18.08;;;13.13;;
21827;SDS011;11076;47.942;11.804;2023-04-21T06:36:16;13.85;;;11.20;;
21827;SDS011;11076;47.942;11.804;2023-04-21T06:41:18;14.30;;;11.23;;
21827;SDS011;11076;47.942;11.804;2023-04-21T06:46:21;13.05;;;10.27;;
21827;SDS011;11076;47.942;11.804;2023-04-21T06:51:23;14.52;;;11.27;;
21827;SDS011;11076;47.942;11.804;2023-04-21T06:56:26;15.80;;;10.90;;
21827;SDS011;11076;47.942;11.804;2023-04-21T07:01:29;13.65;;;11.45;;
21827;SDS011;11076;47.942;11.804;2023-04-21T07:06:31;14.13;;;10.55;;
21827;SDS011;11076;47.942;11.804;2023-04-21T07:11:33;14.40;;;11.13;;
21827;SDS011;11076;47.942;11.804;2023-04-21T07:16:36;13.77;;;10.82;;
21827;SDS011;11076;47.942;11.804;2023-04-21T07:21:38;12.50;;;9.80;;
21827;SDS011;11076;47.942;11.804;2023-04-21T07:26:40;12.10;;;9.63;;
21827;SDS011;11076;47.942;11.804;2023-04-21T07:31:43;16.25;;;9.98;;
21827;SDS011;11076;47.942;11.804;2023-04-21T07:36:47;10.98;;;9.43;;
21827;SDS011;11076;47.942;11.804;2023-04-21T07:41:51;15.50;;;10.07;;
21827;SDS011;11076;47.942;11.804;2023-04-21T07:46:53;14.38;;;10.10;;
21827;SDS011;11076;47.942;11.804;2023-04-21T07:51:56;11.77;;;9.68;;
21827;SDS011;11076;47.942;11.804;2023-04-21T07:56:58;13.80;;;10.20;;
21827;SDS011;11076;47.942;11.804;2023-04-21T08:02:00;13.73;;;10.38;;
21827;SDS011;11076;47.942;11.804;2023-04-21T08:07:03;10.63;;;8.95;;
21827;SDS011;11076;47.942;11.804;2023-04-21T08:12:06;10.50;;;8.60;;
21827;SDS011;11076;47.942;11.804;2023-04-21T08:17:08;12.25;;;8.88;;
21827;SDS011;11076;47.942;11.804;2023-04-21T08:22:10;12.52;;;8.32;;
21827;SDS011;11076;47.942;11.804;2023-04-21T08:27:13;11.35;;;9.00;;
21827;SDS011;11076;47.942;11.804;2023-04-21T08:32:15;10.90;;;8.82;;
21827;SDS011;11076;47.942;11.804;2023-04-21T08:37:23;10.85;;;8.60;;
21827;SDS011;11076;47.942;11.804;2023-04-21T08:42:25;13.73;;;9.32;;
21827;SDS011;11076;47.942;11.804;2023-04-21T08:47:27;10.45;;;7.97;;
21827;SDS011;11076;47.942;11.804;2023-04-21T08:52:31;11.25;;;8.75;;
21827;SDS011;11076;47.942;11.804;2023-04-21T08:57:33;8.40;;;7.18;;
21827;SDS011;11076;47.942;11.804;2023-04-21T09:02:51;13.32;;;8.40;;
21827;SDS011;11076;47.942;11.804;2023-04-21T09:08:13;10.57;;;8.55;;
21827;SDS011;11076;47.942;11.804;2023-04-21T09:13:19;11.00;;;8.80;;
21827;SDS011;11076;47.942;11.804;2023-04-21T09:18:25;11.13;;;8.85;;
21827;SDS011;11076;47.942;11.804;2023-04-21T09:23:28;14.20;;;8.88;;
21827;SDS011;11076;47.942;11.804;2023-04-21T09:28:31;11.57;;;8.40;;
21827;SDS011;11076;47.942;11.804;2023-04-21T09:33:34;11.07;;;8.27;;
21827;SDS011;11076;47.942;11.804;2023-04-21T09:38:40;10.60;;;8.55;;
21827;SDS011;11076;47.942;11.804;2023-04-21T09:43:42;11.77;;;9.70;;
21827;SDS011;11076;47.942;11.804;2023-04-21T09:48:45;9.93;;;7.55;;
21827;SDS011;11076;47.942;11.804;2023-04-21T09:53:48;13.40;;;8.32;;
21827;SDS011;11076;47.942;11.804;2023-04-21T09:58:56;10.10;;;8.05;;
21827;SDS011;11076;47.942;11.804;2023-04-21T10:04:02;11.13;;;8.38;;
21827;SDS011;11076;47.942;11.804;2023-04-21T10:09:04;9.65;;;8.10;;
21827;SDS011;11076;47.942;11.804;2023-04-21T10:14:10;16.75;;;8.63;;
21827;SDS011;11076;47.942;11.804;2023-04-21T10:19:25;10.75;;;8.10;;
21827;SDS011;11076;47.942;11.804;2023-04-21T10:24:28;7.53;;;6.07;;
21827;SDS011;11076;47.942;11.804;2023-04-21T10:29:32;7.63;;;6.82;;
21827;SDS011;11076;47.942;11.804;2023-04-21T10:34:38;11.82;;;6.35;;
21827;SDS011;11076;47.942;11.804;2023-04-21T10:39:42;12.23;;;7.38;;
21827;SDS011;11076;47.942;11.804;2023-04-21T10:44:50;9.43;;;7.88;;
21827;SDS011;11076;47.942;11.804;2023-04-21T10:49:56;9.13;;;7.50;;
21827;SDS011;11076;47.942;11.804;2023-04-21T11:00:05;11.73;;;7.43;;
21827;SDS011;11076;47.942;11.804;2023-04-21T11:05:08;11.10;;;7.50;;
21827;SDS011;11076;47.942;11.804;2023-04-21T11:10:11;8.80;;;6.70;;
21827;SDS011;11076;47.942;11.804;2023-04-21T11:15:13;12.07;;;7.55;;
21827;SDS011;11076;47.942;11.804;2023-04-21T11:20:16;10.05;;;9.00;;
21827;SDS011;11076;47.942;11.804;2023-04-21T11:25:19;9.25;;;7.97;;
21827;SDS011;11076;47.942;11.804;2023-04-21T11:30:29;8.15;;;7.13;;
21827;SDS011;11076;47.942;11.804;2023-04-21T11:35:39;10.60;;;8.32;;
21827;SDS011;11076;47.942;11.804;2023-04-21T11:40:47;11.52;;;8.40;;
21827;SDS011;11076;47.942;11.804;2023-04-21T11:45:50;16.25;;;10.98;;
21827;SDS011;11076;47.942;11.804;2023-04-21T11:50:53;15.80;;;9.45;;
21827;SDS011;11076;47.942;11.804;2023-04-21T11:55:55;12.38;;;9.55;;
21827;SDS011;11076;47.942;11.804;2023-04-21T12:00:58;13.68;;;8.10;;
21827;SDS011;11076;47.942;11.804;2023-04-21T12:06:08;8.57;;;6.75;;
21827;SDS011;11076;47.942;11.804;2023-04-21T12:11:10;8.57;;;6.43;;
21827;SDS011;11076;47.942;11.804;2023-04-21T12:16:13;9.73;;;7.13;;
21827;SDS011;11076;47.942;11.804;2023-04-21T12:21:16;8.40;;;6.30;;
21827;SDS011;11076;47.942;11.804;2023-04-21T12:26:18;7.53;;;6.05;;
21827;SDS011;11076;47.942;11.804;2023-04-21T12:31:23;8.15;;;6.05;;
21827;SDS011;11076;47.942;11.804;2023-04-21T12:36:25;8.50;;;5.85;;
21827;SDS011;11076;47.942;11.804;2023-04-21T12:41:28;7.50;;;5.90;;
21827;SDS011;11076;47.942;11.804;2023-04-21T12:46:31;5.82;;;5.22;;
21827;SDS011;11076;47.942;11.804;2023-04-21T12:51:34;5.40;;;4.90;;
21827;SDS011;11076;47.942;11.804;2023-04-21T12:56:36;5.00;;;4.50;;
21827;SDS011;11076;47.942;11.804;2023-04-21T13:01:41;3.90;;;2.95;;
21827;SDS011;11076;47.942;11.804;2023-04-21T13:06:44;3.05;;;2.80;;
21827;SDS011;11076;47.942;11.804;2023-04-21T13:11:47;2.95;;;2.58;;
21827;SDS011;11076;47.942;11.804;2023-04-21T13:16:51;2.33;;;2.20;;
21827;SDS011;11076;47.942;11.804;2023-04-21T13:21:54;1.95;;;1.85;;
21827;SDS011;11076;47.942;11.804;2023-04-21T13:26:57;3.88;;;2.80;;
21827;SDS011;11076;47.942;11.804;2023-04-21T13:32:01;3.95;;;2.60;;
21827;SDS011;11076;47.942;11.804;2023-04-21T13:37:04;2.42;;;2.25;;
21827;SDS011;11076;47.942;11.804;2023-04-21T13:42:09;3.50;;;2.55;;
21827;SDS011;11076;47.942;11.804;2023-04-21T13:47:12;2.92;;;2.45;;
21827;SDS011;11076;47.942;11.804;2023-04-21T13:52:15;2.67;;;2.10;;
21827;SDS011;11076;47.942;11.804;2023-04-21T13:57:17;10.35;;;7.18;;
21827;SDS011;11076;47.942;11.804;2023-04-21T14:02:20;4.80;;;3.60;;
21827;SDS011;11076;47.942;11.804;2023-04-21T14:07:24;2.90;;;2.70;;
21827;SDS011;11076;47.942;11.804;2023-04-21T14:12:27;3.83;;;3.10;;
21827;SDS011;11076;47.942;11.804;2023-04-21T14:17:29;1.95;;;1.65;;
21827;SDS011;11076;47.942;11.804;2023-04-21T14:22:33;2.38;;;1.50;;
21827;SDS011;11076;47.942;11.804;2023-04-21T14:27:35;2.28;;;1.67;;
21827;SDS011;11076;47.942;11.804;2023-04-21T14:32:38;1.67;;;1.58;;
21827;SDS011;11076;47.942;11.804;2023-04-21T14:37:46;4.53;;;2.05;;
21827;SDS011;11076;47.942;11.804;2023-04-21T14:42:48;2.47;;;1.60;;
21827;SDS011;11076;47.942;11.804;2023-04-21T14:47:51;11.18;;;4.43;;
21827;SDS011;11076;47.942;11.804;2023-04-21T14:52:55;1.80;;;1.67;;
21827;SDS011;11076;47.942;11.804;2023-04-21T14:57:57;1.45;;;1.30;;
21827;SDS011;11076;47.942;11.804;2023-04-21T15:02:59;3.45;;;2.60;;
21827;SDS011;11076;47.942;11.804;2023-04-21T15:08:02;2.00;;;1.90;;
21827;SDS011;11076;47.942;11.804;2023-04-21T15:13:04;2.00;;;1.90;;
21827;SDS011;11076;47.942;11.804;2023-04-21T15:18:07;1.60;;;1.50;;
21827;SDS011;11076;47.942;11.804;2023-04-21T15:23:10;2.30;;;1.80;;
21827;SDS011;11076;47.942;11.804;2023-04-21T15:28:13;1.63;;;1.52;;
21827;SDS011;11076;47.942;11.804;2023-04-21T15:33:15;1.77;;;1.63;;
21827;SDS011;11076;47.942;11.804;2023-04-21T15:38:18;1.70;;;1.60;;
21827;SDS011;11076;47.942;11.804;2023-04-21T15:43:22;3.30;;;1.40;;
21827;SDS011;11076;47.942;11.804;2023-04-21T15:48:26;2.55;;;2.35;;
21827;SDS011;11076;47.942;11.804;2023-04-21T15:53:28;2.25;;;1.80;;
21827;SDS011;11076;47.942;11.804;2023-04-21T15:58:31;1.83;;;1.50;;
21827;SDS011;11076;47.942;11.804;2023-04-21T16:03:33;4.03;;;2.00;;
21827;SDS011;11076;47.942;11.804;2023-04-21T16:08:36;1.50;;;1.40;;
21827;SDS011;11076;47.942;11.804;2023-04-21T16:13:38;3.00;;;1.30;;
21827;SDS011;11076;47.942;11.804;2023-04-21T16:18:41;2.50;;;1.45;;
21827;SDS011;11076;47.942;11.804;2023-04-21T16:23:43;1.80;;;1.70;;
21827;SDS011;11076;47.942;11.804;2023-04-21T16:28:45;2.00;;;1.80;;
21827;SDS011;11076;47.942;11.804;2023-04-21T16:33:48;2.42;;;1.83;;
21827;SDS011;11076;47.942;11.804;2023-04-21T16:38:52;2.08;;;1.88;;
21827;SDS011;11076;47.942;11.804;2023-04-21T16:43:56;3.63;;;2.00;;
21827;SDS011;11076;47.942;11.804;2023-04-21T16:48:58;3.60;;;1.88;;
21827;SDS011;11076;47.942;11.804;2023-04-21T16:54:00;3.53;;;1.98;;
21827;SDS011;11076;47.942;11.804;2023-04-21T16:59:03;3.20;;;1.67;;
21827;SDS011;11076;47.942;11.804;2023-04-21T17:04:05;2.58;;;2.28;;
21827;SDS011;11076;47.942;11.804;2023-04-21T17:09:08;2.00;;;1.85;;
21827;SDS011;11076;47.942;11.804;2023-04-21T17:14:10;5.70;;;2.00;;
21827;SDS011;11076;47.942;11.804;2023-04-21T17:19:14;2.50;;;1.95;;
21827;SDS011;11076;47.942;11.804;2023-04-21T17:24:16;2.92;;;2.45;;
21827;SDS011;11076;47.942;11.804;2023-04-21T17:29:19;3.42;;;2.88;;
21827;SDS011;11076;47.942;11.804;2023-04-21T17:34:21;4.22;;;3.83;;
21827;SDS011;11076;47.942;11.804;2023-04-21T17:39:24;15.35;;;9.27;;
21827;SDS011;11076;47.942;11.804;2023-04-21T17:44:27;3.45;;;2.78;;
21827;SDS011;11076;47.942;11.804;2023-04-21T17:49:29;2.15;;;2.00;;
21827;SDS011;11076;47.942;11.804;2023-04-21T17:54:32;3.97;;;2.00;;
21827;SDS011;11076;47.942;11.804;2023-04-21T17:59:34;2.40;;;2.03;;
21827;SDS011;11076;47.942;11.804;2023-04-21T18:04:37;2.03;;;1.70;;
21827;SDS011;11076;47.942;11.804;2023-04-21T18:09:40;2.97;;;2.10;;
21827;SDS011;11076;47.942;11.804;2023-04-21T18:14:43;4.88;;;3.33;;
21827;SDS011;11076;47.942;11.804;2023-04-21T18:19:45;2.35;;;2.15;;
21827;SDS011;11076;47.942;11.804;2023-04-21T18:24:47;2.70;;;2.50;;
21827;SDS011;11076;47.942;11.804;2023-04-21T18:29:51;5.78;;;3.05;;
21827;SDS011;11076;47.942;11.804;2023-04-21T18:34:54;3.17;;;2.03;;
21827;SDS011;11076;47.942;11.804;2023-04-21T18:39:56;3.35;;;1.90;;
21827;SDS011;11076;47.942;11.804;2023-04-21T18:44:59;5.30;;;2.53;;
21827;SDS011;11076;47.942;11.804;2023-04-21T18:50:02;2.35;;;2.15;;
21827;SDS011;11076;47.942;11.804;2023-04-21T18:55:05;4.35;;;3.83;;
21827;SDS011;11076;47.942;11.804;2023-04-21T19:00:07;5.78;;;3.58;;
21827;SDS011;11076;47.942;11.804;2023-04-21T19:05:10;3.50;;;3.20;;
21827;SDS011;11076;47.942;11.804;2023-04-21T19:10:13;5.20;;;4.00;;
21827;SDS011;11076;47.942;11.804;2023-04-21T19:15:15;3.70;;;3.22;;
21827;SDS011;11076;47.942;11.804;2023-04-21T19:20:19;2.90;;;2.40;;
21827;SDS011;11076;47.942;11.804;2023-04-21T19:25:21;6.03;;;2.33;;
21827;SDS011;11076;47.942;11.804;2023-04-21T19:30:24;4.90;;;2.83;;
21827;SDS011;11076;47.942;11.804;2023-04-21T19:35:26;2.40;;;2.20;;
21827;SDS011;11076;47.942;11.804;2023-04-21T19:40:28;3.08;;;2.28;;
21827;SDS011;11076;47.942;11.804;2023-04-21T19:45:31;4.63;;;2.90;;
21827;SDS011;11076;47.942;11.804;2023-04-21T19:50:34;3.78;;;2.38;;
21827;SDS011;11076;47.942;11.804;2023-04-21T19:55:36;6.03;;;2.95;;
21827;SDS011;11076;47.942;11.804;2023-04-21T20:00:39;3.38;;;2.78;;
21827;SDS011;11076;47.942;11.804;2023-04-21T20:05:44;3.85;;;2.45;;
21827;SDS011;11076;47.942;11.804;2023-04-21T20:10:47;3.28;;;2.67;;
21827;SDS011;11076;47.942;11.804;2023-04-21T20:15:50;9.23;;;3.28;;
21827;SDS011;11076;47.942;11.804;2023-04-21T20:20:52;7.10;;;3.30;;
21827;SDS011;11076;47.942;11.804;2023-04-21T20:25:54;4.97;;;2.67;;
21827;SDS011;11076;47.942;11.804;2023-04-21T20:30:58;7.43;;;3.42;;
21827;SDS011;11076;47.942;11.804;2023-04-21T20:36:00;6.95;;;3.17;;
21827;SDS011;11076;47.942;11.804;2023-04-21T20:41:08;4.43;;;3.47;;
21827;SDS011;11076;47.942;11.804;2023-04-21T20:46:10;8.35;;;4.30;;
21827;SDS011;11076;47.942;11.804;2023-04-21T20:51:13;4.38;;;3.20;;
21827;SDS011;11076;47.942;11.804;2023-04-21T20:56:15;4.65;;;3.45;;
21827;SDS011;11076;47.942;11.804;2023-04-21T21:01:18;3.42;;;3.00;;
21827;SDS011;11076;47.942;11.804;2023-04-21T21:06:20;3.97;;;3.25;;
21827;SDS011;11076;47.942;11.804;2023-04-21T21:11:23;5.38;;;2.63;;
21827;SDS011;11076;47.942;11.804;2023-04-21T21:16:25;2.60;;;2.40;;
21827;SDS011;11076;47.942;11.804;2023-04-21T21:21:28;3.85;;;2.17;;
21827;SDS011;11076;47.942;11.804;2023-04-21T21:26:30;4.93;;;3.22;;
21827;SDS011;11076;47.942;11.804;2023-04-21T21:31:32;4.78;;;2.92;;
21827;SDS011;11076;47.942;11.804;2023-04-21T21:36:35;7.57;;;2.67;;
21827;SDS011;11076;47.942;11.804;2023-04-21T21:41:37;2.80;;;2.03;;
21827;SDS011;11076;47.942;11.804;2023-04-21T21:46:40;4.45;;;2.50;;
21827;SDS011;11076;47.942;11.804;2023-04-21T21:51:42;2.95;;;2.65;;
21827;SDS011;11076;47.942;11.804;2023-04-21T21:56:45;4.40;;;2.63;;
21827;SDS011;11076;47.942;11.804;2023-04-21T22:01:48;3.28;;;2.55;;
21827;SDS011;11076;47.942;11.804;2023-04-21T22:06:50;3.40;;;2.22;;
21827;SDS011;11076;47.942;11.804;2023-04-21T22:11:53;2.83;;;2.30;;
21827;SDS011;11076;47.942;11.804;2023-04-21T22:16:56;2.55;;;2.35;;
21827;SDS011;11076;47.942;11.804;2023-04-21T22:21:58;2.43;;;2.00;;
21827;SDS011;11076;47.942;11.804;2023-04-21T22:27:01;3.13;;;2.23;;
21827;SDS011;11076;47.942;11.804;2023-04-21T22:32:04;2.47;;;2.20;;
21827;SDS011;11076;47.942;11.804;2023-04-21T22:37:06;3.72;;;2.00;;
21827;SDS011;11076;47.942;11.804;2023-04-21T22:42:08;2.80;;;2.15;;
21827;SDS011;11076;47.942;11.804;2023-04-21T22:47:11;4.23;;;2.77;;
21827;SDS011;11076;47.942;11.804;2023-04-21T22:52:13;3.27;;;2.60;;
21827;SDS011;11076;47.942;11.804;2023-04-21T22:57:16;2.27;;;2.07;;
21827;SDS011;11076;47.942;11.804;2023-04-21T23:02:18;2.77;;;2.50;;
21827;SDS011;11076;47.942;11.804;2023-04-21T23:07:21;2.47;;;2.27;;
21827;SDS011;11076;47.942;11.804;2023-04-21T23:12:23;2.60;;;2.27;;
21827;SDS011;11076;47.942;11.804;2023-04-21T23:17:25;2.50;;;2.13;;
21827;SDS011;11076;47.942;11.804;2023-04-21T23:22:28;2.47;;;2.20;;
21827;SDS011;11076;47.942;11.804;2023-04-21T23:27:30;2.60;;;2.40;;
21827;SDS011;11076;47.942;11.804;2023-04-21T23:32:32;3.77;;;2.67;;
21827;SDS011;11076;47.942;11.804;2023-04-21T23:37:35;3.93;;;2.40;;
21827;SDS011;11076;47.942;11.804;2023-04-21T23:42:38;3.17;;;2.40;;
21827;SDS011;11076;47.942;11.804;2023-04-21T23:47:40;3.30;;;2.47;;
21827;SDS011;11076;47.942;11.804;2023-04-21T23:52:43;1.97;;;1.70;;
21827;SDS011;11076;47.942;11.804;2023-04-21T23:57:45;3.23;;;1.90;;
